Pintura, Utah
Current Conditions -  °F | °C
As of 9:53 PM on Wednesday 26 Nov 2014 (Local Time) from KCDC Reporting Station
Clear Clear  
Wind Chill: 34°   Ceiling: Unl
Heat Index: 34°   Visibility: 10mi
Dew Point: 17°   Wind: 3mph
Humidity: 50%   Direction: 180°S
Pressure: 30.43"   Gusts: NA
Location:  37.7617°N, 113.219°W
Report Text: KCDC 270453Z AUTO 18003KT 10SM CLR 01/M08 A3043 RMK AO2 SLP301 T00111083
Loading
Personal Weather Stations






























Interactive Weather Map New forecast layout! Learn more

10-Day Weather Forecast

Advertisements
Track Severe Weather on mobile